Map

Track Data

SID SEASON NUMBER BASIN SUBBASIN NAME ISO_TIME NATURE LAT LON WMO_WIND WMO_PRES WMO_AGENCY TRACK_TYPE DIST2LAND LANDFALL IFLAG USA_AGENCY USA_ATCF_ID USA_LAT USA_LON USA_RECORD USA_STATUS USA_WIND USA_PRES USA_SSHS USA_R34_NE USA_R34_SE USA_R34_SW USA_R34_NW USA_R50_NE USA_R50_SE USA_R50_SW USA_R50_NW USA_R64_NE USA_R64_SE USA_R64_SW USA_R64_NW USA_POCI USA_ROCI USA_RMW USA_EYE TOKYO_LAT TOKYO_LON TOKYO_GRADE TOKYO_WIND TOKYO_PRES TOKYO_R50_DIR TOKYO_R50_LONG TOKYO_R50_SHORT TOKYO_R30_DIR TOKYO_R30_LONG TOKYO_R30_SHORT TOKYO_LAND CMA_LAT CMA_LON CMA_CAT CMA_WIND CMA_PRES HKO_LAT HKO_LON HKO_CAT HKO_WIND HKO_PRES NEWDELHI_LAT NEWDELHI_LON NEWDELHI_GRADE NEWDELHI_WIND NEWDELHI_PRES NEWDELHI_CI NEWDELHI_DP NEWDELHI_POCI REUNION_LAT REUNION_LON REUNION_TYPE REUNION_WIND REUNION_PRES REUNION_TNUM REUNION_CI REUNION_RMW REUNION_R34_NE REUNION_R34_SE REUNION_R34_SW REUNION_R34_NW REUNION_R50_NE REUNION_R50_SE REUNION_R50_SW REUNION_R50_NW REUNION_R64_NE REUNION_R64_SE REUNION_R64_SW REUNION_R64_NW BOM_LAT BOM_LON BOM_TYPE BOM_WIND BOM_PRES BOM_TNUM BOM_CI BOM_RMW BOM_R34_NE BOM_R34_SE BOM_R34_SW BOM_R34_NW BOM_R50_NE BOM_R50_SE BOM_R50_SW BOM_R50_NW BOM_R64_NE BOM_R64_SE BOM_R64_SW BOM_R64_NW BOM_ROCI BOM_POCI BOM_EYE BOM_POS_METHOD BOM_PRES_METHOD NADI_LAT NADI_LON NADI_CAT NADI_WIND NADI_PRES WELLINGTON_LAT WELLINGTON_LON WELLINGTON_WIND WELLINGTON_PRES DS824_LAT DS824_LON DS824_STAGE DS824_WIND DS824_PRES TD9636_LAT TD9636_LON TD9636_STAGE TD9636_WIND TD9636_PRES TD9635_LAT TD9635_LON TD9635_WIND TD9635_PRES TD9635_ROCI NEUMANN_LAT NEUMANN_LON NEUMANN_CLASS NEUMANN_WIND NEUMANN_PRES MLC_LAT MLC_LON MLC_CLASS MLC_WIND MLC_PRES USA_GUST BOM_GUST BOM_GUST_PER REUNION_GUST REUNION_GUST_PER USA_SEAHGT USA_SEARAD_NE USA_SEARAD_SE USA_SEARAD_SW USA_SEARAD_NW STORM_SPEED STORM_DIR
1913242N20087 1913 43 NI BB NOT_NAMED 1913-08-30 00:00:00 TS 19.6000 86.8000 main 61 49 _________O____ -1 19.6000 86.8000 TC 45 4 257
1913242N20087 1913 43 NI BB NOT_NAMED 1913-08-30 03:00:00 TS 19.5551 86.5933 main 49 49 _________PO___ -1 19.5327 86.4899 TC 45 19.6000 86.8000 3 4 261
1913242N20087 1913 43 NI BB NOT_NAMED 1913-08-30 06:00:00 TS 19.5293 86.3411 main 49 44 _________OP___ -1 19.5000 86.2000 TC 45 19.5732 86.5527 3 5 268
1913242N20087 1913 43 NI BB NOT_NAMED 1913-08-30 09:00:00 TS 19.5400 86.0819 main 44 22 _________PP___ -1 19.5273 85.9300 TC 45 19.5570 86.2844 3 5 276
1913242N20087 1913 43 NI BB NOT_NAMED 1913-08-30 12:00:00 TS 19.5812 85.7870 main 22 0 _________OP___ -1 19.6000 85.6000 TC 45 19.5624 85.9739 3 7 279
1913242N20087 1913 43 NI BB NOT_NAMED 1913-08-30 15:00:00 TS 19.6463 85.3613 main 0 0 _________PO___ -1 19.6926 85.1226 TC 41 19.6000 85.6000 3 9 280
1913242N20087 1913 43 NI BB NOT_NAMED 1913-08-30 18:00:00 TS 19.7380 84.8757 main 0 0 _________OP___ -1 19.8000 84.6000 TC 37 19.6759 85.1514 3 9 282
1913242N20087 1913 43 NI BB NOT_NAMED 1913-08-30 21:00:00 TS 19.8392 84.3891 main 0 0 _________PP___ -1 19.9000 84.1200 TC 33 19.7784 84.6581 3 9 283
1913242N20087 1913 43 NI BB NOT_NAMED 1913-08-31 00:00:00 TS 19.9458 83.9304 main 0 0 _________OP___ -1 20.0000 83.7000 TC 30 19.8915 84.1607 3 8 285
1913242N20087 1913 43 NI BB NOT_NAMED 1913-08-31 03:00:00 TS 20.0536 83.5425 main 0 0 _________PO___ -1 20.1073 83.3850 TC 30 20.0000 83.7000 1 7 286
1913242N20087 1913 43 NI BB NOT_NAMED 1913-08-31 06:00:00 TS 20.1428 83.2179 main 0 0 _________OP___ -1 20.2000 83.1000 TC 30 20.0855 83.3357 1 6 284
1913242N20087 1913 43 NI BB NOT_NAMED 1913-08-31 09:00:00 TS 20.2108 82.8848 main 0 0 _________PP___ -1 20.2575 82.7574 TC 30 20.1641 83.0122 1 6 281
1913242N20087 1913 43 NI BB NOT_NAMED 1913-08-31 12:00:00 TS 20.2678 82.5538 main 0 0 _________OP___ -1 20.3000 82.4000 TC 30 20.2356 82.7076 1 6 280
1913242N20087 1913 43 NI BB NOT_NAMED 1913-08-31 15:00:00 TS 20.3250 82.2250 main 0 0 _________PO___ -1 20.3499 82.0500 TC 30 20.3000 82.4000 1 6 279
1913242N20087 1913 43 NI BB NOT_NAMED 1913-08-31 18:00:00 TS 20.3703 81.8824 main 0 0 _________OP___ -1 20.4000 81.7000 TC 30 20.3407 82.0649 1 6 277
1913242N20087 1913 43 NI BB NOT_NAMED 1913-08-31 21:00:00 TS 20.4060 81.5396 main 0 0 _________PP___ -1 20.4349 81.3574 TC 30 20.3771 81.7218 1 7 278
1913242N20087 1913 43 NI BB NOT_NAMED 1913-09-01 00:00:00 TS 20.4625 81.1840 main 0 0 _________OP___ -1 20.5000 81.0000 TC 30 20.4250 81.3679 1 7 283
1913242N20087 1913 43 NI BB NOT_NAMED 1913-09-01 03:00:00 TS 20.5675 80.8038 main 0 0 _________PO___ -1 20.6350 80.6075 TC 30 20.5000 81.0000 1 8 289
1913242N20087 1913 43 NI BB NOT_NAMED 1913-09-01 06:00:00 TS 20.7086 80.4052 main 0 0 _________OP___ -1 20.8000 80.2000 TC 30 20.6171 80.6104 1 8 291
1913242N20087 1913 43 NI BB NOT_NAMED 1913-09-01 09:00:00 TS 20.8524 80.0000 main 0 0 _________PP___ -1 20.9425 79.7924 TC 30 20.7624 80.2076 1 8 292
1913242N20087 1913 43 NI BB NOT_NAMED 1913-09-01 12:00:00 TS 21.0133 79.6005 main 0 0 _________OP___ -1 21.1000 79.4000 TC 30 20.9265 79.8010 1 8 296
1913242N20087 1913 43 NI BB NOT_NAMED 1913-09-01 15:00:00 TS 21.1999 79.2250 main 0 0 _________PO___ -1 21.2998 79.0500 TC 30 21.1000 79.4000 1 8 298
1913242N20087 1913 43 NI BB NOT_NAMED 1913-09-01 18:00:00 TS 21.3815 78.8728 main 0 0 _________OP___ -1 21.5000 78.7000 TC 30 21.2629 79.0457 1 7 297
1913242N20087 1913 43 NI BB NOT_NAMED 1913-09-01 21:00:00 TS 21.5418 78.5119 main 0 0 _________PP___ -1 21.6498 78.3297 TC 30 21.4338 78.6941 1 8 295
1913242N20087 1913 43 NI BB NOT_NAMED 1913-09-02 00:00:00 TS 21.7064 78.1103 main 0 0 _________OP___ -1 21.8000 77.9000 TC 30 21.6128 78.3205 1 9 294
1913242N20087 1913 43 NI AS NOT_NAMED 1913-09-02 03:00:00 TS 21.8963 77.6363 main 0 0 _________PO___ -1 21.9925 77.3725 TC 30 21.8000 77.9000 1 10 293
1913242N20087 1913 43 NI AS NOT_NAMED 1913-09-02 06:00:00 TS 22.0986 77.0982 main 0 0 _________OP___ -1 22.2000 76.8000 TC 30 21.9971 77.3964 1 11 292
1913242N20087 1913 43 NI AS NOT_NAMED 1913-09-02 09:00:00 TS 22.3038 76.5475 main 0 0 _________PP___ -1 22.4073 76.2499 TC 30 22.2004 76.8451 1 11 291
1913242N20087 1913 43 NI AS NOT_NAMED 1913-09-02 12:00:00 TS 22.5017 75.9856 main 0 0 _________OP___ -1 22.6000 75.7000 TC 30 22.4033 76.2713 1 11 290
1913242N20087 1913 43 NI AS NOT_NAMED 1913-09-02 15:00:00 TS 22.6749 75.4211 main 0 0 _________PO___ -1 22.7499 75.1422 TC 30 22.6000 75.7000 1 11 288
1913242N20087 1913 43 NI AS NOT_NAMED 1913-09-02 18:00:00 TS 22.8451 74.8717 main 0 0 _________OP___ -1 22.9000 74.6000 TC 30 22.7902 75.1433 1 11 290
1913242N20087 1913 43 NI AS NOT_NAMED 1913-09-02 21:00:00 TS 23.0362 74.3338 main 0 0 _________PP___ -1 23.1000 74.0701 TC 30 22.9724 74.5974 1 10 292
1913242N20087 1913 43 NI AS NOT_NAMED 1913-09-03 00:00:00 TS 23.2217 73.8389 main 0 0 _________OP___ -1 23.3000 73.6000 TC 30 23.1434 74.0778 1 9 292
1913242N20087 1913 43 NI AS NOT_NAMED 1913-09-03 03:00:00 TS 23.3823 73.4174 main 0 0 _________PO___ -1 23.4647 73.2348 TC 30 23.3000 73.6000 1 8 292
1913242N20087 1913 43 NI AS NOT_NAMED 1913-09-03 06:00:00 TS 23.5213 73.0386 main 0 0 _________OP___ -1 23.6000 72.9000 TC 30 23.4426 73.1773 1 8 290
1913242N20087 1913 43 NI AS NOT_NAMED 1913-09-03 09:00:00 TS 23.6395 72.6484 main 0 0 _________PP___ -1 23.7075 72.4999 TC 30 23.5715 72.7969 1 7 288
1913242N20087 1913 43 NI AS NOT_NAMED 1913-09-03 12:00:00 TS 23.7448 72.2715 main 0 0 _________OP___ -1 23.8000 72.1000 TC 30 23.6897 72.4430 1 7 288
1913242N20087 1913 43 NI AS NOT_NAMED 1913-09-03 15:00:00 TS 23.8499 71.9212 main 0 0 _________PO___ -1 23.8999 71.7424 TC 30 23.8000 72.1000 1 6 288
1913242N20087 1913 43 NI AS NOT_NAMED 1913-09-03 18:00:00 TS 23.9457 71.6027 main 0 0 _________OP___ -1 24.0000 71.4000 TC 30 23.9050 71.7547 1 6 288
1913242N20087 1913 43 NI AS NOT_NAMED 1913-09-03 21:00:00 TS 24.0436 71.2644 main 0 0 _________PP___ -1 24.1002 71.0526 TC 30 24.0059 71.4056 1 6 287
1913242N20087 1913 43 NI AS NOT_NAMED 1913-09-04 00:00:00 TS 24.1359 70.9357 main 0 0 _________OP___ -1 24.2000 70.7000 TC 30 24.1039 71.0536 1 5 287
1913242N20087 1913 43 NI AS NOT_NAMED 1913-09-04 03:00:00 NR 24.2000 70.7000 main 0 __________O___ -1 TC 24.2000 70.7000 1 4 286

About IBTrACS Database

This database is a web-friendly format of International Best Track Archive for Climate Stewardship (IBTrACS), a global best track data archive curated by NOAA dating back to 1842.

Updated: 2021-11-26